sensor_id;sensor_type;location;lat;lon;timestamp;temperature;humidity
11894;DHT22;6006;49.696;8.662;2022-08-21T00:02:03;14.30;99.90
11894;DHT22;6006;49.696;8.662;2022-08-21T00:04:31;14.20;99.90
11894;DHT22;6006;49.696;8.662;2022-08-21T00:06:58;14.20;99.90
11894;DHT22;6006;49.696;8.662;2022-08-21T00:09:25;14.10;99.90
11894;DHT22;6006;49.696;8.662;2022-08-21T00:11:52;14.00;99.90
11894;DHT22;6006;49.696;8.662;2022-08-21T00:14:20;14.00;99.90
11894;DHT22;6006;49.696;8.662;2022-08-21T00:16:47;14.00;99.90
11894;DHT22;6006;49.696;8.662;2022-08-21T00:19:14;14.00;99.90
11894;DHT22;6006;49.696;8.662;2022-08-21T00:21:41;14.00;99.90
11894;DHT22;6006;49.696;8.662;2022-08-21T00:24:08;14.00;99.90
11894;DHT22;6006;49.696;8.662;2022-08-21T00:26:35;13.90;99.90
11894;DHT22;6006;49.696;8.662;2022-08-21T00:29:02;13.90;99.90
11894;DHT22;6006;49.696;8.662;2022-08-21T00:31:30;13.90;99.90
11894;DHT22;6006;49.696;8.662;2022-08-21T00:33:57;13.90;99.90
11894;DHT22;6006;49.696;8.662;2022-08-21T00:36:24;13.90;99.90
11894;DHT22;6006;49.696;8.662;2022-08-21T00:38:51;13.90;99.90
11894;DHT22;6006;49.696;8.662;2022-08-21T00:41:17;13.90;99.90
11894;DHT22;6006;49.696;8.662;2022-08-21T00:43:44;13.80;99.90
11894;DHT22;6006;49.696;8.662;2022-08-21T00:46:11;13.80;99.90
11894;DHT22;6006;49.696;8.662;2022-08-21T00:48:40;13.80;99.90
11894;DHT22;6006;49.696;8.662;2022-08-21T00:51:10;13.70;99.90
11894;DHT22;6006;49.696;8.662;2022-08-21T00:53:39;13.70;99.90
11894;DHT22;6006;49.696;8.662;2022-08-21T00:56:08;13.70;99.90
11894;DHT22;6006;49.696;8.662;2022-08-21T00:58:36;13.70;99.90
11894;DHT22;6006;49.696;8.662;2022-08-21T01:01:06;13.70;99.90
11894;DHT22;6006;49.696;8.662;2022-08-21T01:03:34;13.70;99.90
11894;DHT22;6006;49.696;8.662;2022-08-21T01:06:03;13.70;99.90
11894;DHT22;6006;49.696;8.662;2022-08-21T01:08:31;13.70;99.90
11894;DHT22;6006;49.696;8.662;2022-08-21T01:10:59;13.60;99.90
11894;DHT22;6006;49.696;8.662;2022-08-21T01:13:27;13.60;99.90
11894;DHT22;6006;49.696;8.662;2022-08-21T01:15:58;13.50;99.90
11894;DHT22;6006;49.696;8.662;2022-08-21T01:18:27;13.50;99.90
11894;DHT22;6006;49.696;8.662;2022-08-21T01:21:05;13.50;99.90
11894;DHT22;6006;49.696;8.662;2022-08-21T01:23:33;13.50;99.90
11894;DHT22;6006;49.696;8.662;2022-08-21T01:26:00;13.40;99.90
11894;DHT22;6006;49.696;8.662;2022-08-21T01:28:28;13.30;99.90
11894;DHT22;6006;49.696;8.662;2022-08-21T01:30:58;13.20;99.90
11894;DHT22;6006;49.696;8.662;2022-08-21T01:33:27;13.20;99.90
11894;DHT22;6006;49.696;8.662;2022-08-21T01:35:53;13.10;99.90
11894;DHT22;6006;49.696;8.662;2022-08-21T01:38:22;13.10;99.90
11894;DHT22;6006;49.696;8.662;2022-08-21T01:40:50;13.10;99.90
11894;DHT22;6006;49.696;8.662;2022-08-21T01:43:16;13.10;99.90
11894;DHT22;6006;49.696;8.662;2022-08-21T01:45:43;13.10;99.90
11894;DHT22;6006;49.696;8.662;2022-08-21T01:48:10;13.10;99.90
11894;DHT22;6006;49.696;8.662;2022-08-21T01:50:37;13.10;99.90
11894;DHT22;6006;49.696;8.662;2022-08-21T01:53:04;13.10;99.90
11894;DHT22;6006;49.696;8.662;2022-08-21T01:55:33;13.00;99.90
11894;DHT22;6006;49.696;8.662;2022-08-21T01:58:00;13.00;99.90
11894;DHT22;6006;49.696;8.662;2022-08-21T02:00:27;13.00;99.90
11894;DHT22;6006;49.696;8.662;2022-08-21T02:02:53;12.90;99.90
11894;DHT22;6006;49.696;8.662;2022-08-21T02:05:21;12.90;99.90
11894;DHT22;6006;49.696;8.662;2022-08-21T02:07:51;12.90;99.90
11894;DHT22;6006;49.696;8.662;2022-08-21T02:10:22;12.90;99.90
11894;DHT22;6006;49.696;8.662;2022-08-21T02:12:50;12.80;99.90
11894;DHT22;6006;49.696;8.662;2022-08-21T02:15:18;12.80;99.90
11894;DHT22;6006;49.696;8.662;2022-08-21T02:17:47;12.80;99.90
11894;DHT22;6006;49.696;8.662;2022-08-21T02:20:17;12.80;99.90
11894;DHT22;6006;49.696;8.662;2022-08-21T02:22:44;12.80;99.90
11894;DHT22;6006;49.696;8.662;2022-08-21T02:25:11;12.80;99.90
11894;DHT22;6006;49.696;8.662;2022-08-21T02:27:40;12.80;99.90
11894;DHT22;6006;49.696;8.662;2022-08-21T02:30:12;12.80;99.90
11894;DHT22;6006;49.696;8.662;2022-08-21T02:32:40;12.70;99.90
11894;DHT22;6006;49.696;8.662;2022-08-21T02:35:08;12.60;99.90
11894;DHT22;6006;49.696;8.662;2022-08-21T02:37:43;12.60;99.90
11894;DHT22;6006;49.696;8.662;2022-08-21T02:40:11;12.70;99.90
11894;DHT22;6006;49.696;8.662;2022-08-21T02:42:38;12.70;99.90
11894;DHT22;6006;49.696;8.662;2022-08-21T02:45:06;12.70;99.90
11894;DHT22;6006;49.696;8.662;2022-08-21T02:47:34;12.70;99.90
11894;DHT22;6006;49.696;8.662;2022-08-21T02:50:02;12.70;99.90
11894;DHT22;6006;49.696;8.662;2022-08-21T02:52:29;12.70;99.90
11894;DHT22;6006;49.696;8.662;2022-08-21T02:54:56;12.60;99.90
11894;DHT22;6006;49.696;8.662;2022-08-21T02:57:23;12.60;99.90
11894;DHT22;6006;49.696;8.662;2022-08-21T02:59:50;12.60;99.90
11894;DHT22;6006;49.696;8.662;2022-08-21T03:02:17;12.60;99.90
11894;DHT22;6006;49.696;8.662;2022-08-21T03:04:45;12.50;99.90
11894;DHT22;6006;49.696;8.662;2022-08-21T03:07:12;12.50;99.90
11894;DHT22;6006;49.696;8.662;2022-08-21T03:09:39;12.50;99.90
11894;DHT22;6006;49.696;8.662;2022-08-21T03:12:06;12.50;99.90
11894;DHT22;6006;49.696;8.662;2022-08-21T03:14:33;12.50;99.90
11894;DHT22;6006;49.696;8.662;2022-08-21T03:17:00;12.50;99.90
11894;DHT22;6006;49.696;8.662;2022-08-21T03:19:26;12.50;99.90
11894;DHT22;6006;49.696;8.662;2022-08-21T03:21:55;12.40;99.90
11894;DHT22;6006;49.696;8.662;2022-08-21T03:24:21;12.40;99.90
11894;DHT22;6006;49.696;8.662;2022-08-21T03:26:48;12.30;99.90
11894;DHT22;6006;49.696;8.662;2022-08-21T03:29:15;12.30;99.90
11894;DHT22;6006;49.696;8.662;2022-08-21T03:31:42;12.30;99.90
11894;DHT22;6006;49.696;8.662;2022-08-21T03:34:09;12.30;99.90
11894;DHT22;6006;49.696;8.662;2022-08-21T03:36:36;12.30;99.90
11894;DHT22;6006;49.696;8.662;2022-08-21T03:39:04;12.30;99.90
11894;DHT22;6006;49.696;8.662;2022-08-21T03:41:31;12.20;99.90
11894;DHT22;6006;49.696;8.662;2022-08-21T03:43:58;12.20;99.90
11894;DHT22;6006;49.696;8.662;2022-08-21T03:46:25;12.20;99.90
11894;DHT22;6006;49.696;8.662;2022-08-21T03:48:52;12.10;99.90
11894;DHT22;6006;49.696;8.662;2022-08-21T03:51:19;12.10;99.90
11894;DHT22;6006;49.696;8.662;2022-08-21T03:53:46;12.10;99.90
11894;DHT22;6006;49.696;8.662;2022-08-21T03:56:14;12.10;99.90
11894;DHT22;6006;49.696;8.662;2022-08-21T03:58:42;12.10;99.90
11894;DHT22;6006;49.696;8.662;2022-08-21T04:01:10;12.00;99.90
11894;DHT22;6006;49.696;8.662;2022-08-21T04:03:38;12.00;99.90
11894;DHT22;6006;49.696;8.662;2022-08-21T04:06:06;12.00;99.90
11894;DHT22;6006;49.696;8.662;2022-08-21T04:08:33;11.90;99.90
11894;DHT22;6006;49.696;8.662;2022-08-21T04:11:00;12.00;99.90
11894;DHT22;6006;49.696;8.662;2022-08-21T04:13:29;12.00;99.90
11894;DHT22;6006;49.696;8.662;2022-08-21T04:15:56;12.00;99.90
11894;DHT22;6006;49.696;8.662;2022-08-21T04:18:24;12.00;99.90
11894;DHT22;6006;49.696;8.662;2022-08-21T04:20:51;12.00;99.90
11894;DHT22;6006;49.696;8.662;2022-08-21T04:23:20;12.00;99.90
11894;DHT22;6006;49.696;8.662;2022-08-21T04:25:48;11.90;99.90
11894;DHT22;6006;49.696;8.662;2022-08-21T04:28:15;11.90;99.90
11894;DHT22;6006;49.696;8.662;2022-08-21T04:30:43;12.00;99.90
11894;DHT22;6006;49.696;8.662;2022-08-21T04:33:10;12.00;99.90
11894;DHT22;6006;49.696;8.662;2022-08-21T04:35:37;12.00;99.90
11894;DHT22;6006;49.696;8.662;2022-08-21T04:38:04;12.10;99.90
11894;DHT22;6006;49.696;8.662;2022-08-21T04:40:30;12.10;99.90
11894;DHT22;6006;49.696;8.662;2022-08-21T04:43:02;12.10;99.90
11894;DHT22;6006;49.696;8.662;2022-08-21T04:45:31;12.20;99.90
11894;DHT22;6006;49.696;8.662;2022-08-21T04:48:02;12.20;99.90
11894;DHT22;6006;49.696;8.662;2022-08-21T04:50:35;12.30;99.90
11894;DHT22;6006;49.696;8.662;2022-08-21T04:53:04;12.30;99.90
11894;DHT22;6006;49.696;8.662;2022-08-21T04:55:31;12.40;99.90
11894;DHT22;6006;49.696;8.662;2022-08-21T04:57:59;12.40;99.90
11894;DHT22;6006;49.696;8.662;2022-08-21T05:00:26;12.50;99.90
11894;DHT22;6006;49.696;8.662;2022-08-21T05:02:55;12.50;99.90
11894;DHT22;6006;49.696;8.662;2022-08-21T05:05:27;12.50;99.90
11894;DHT22;6006;49.696;8.662;2022-08-21T05:07:54;12.60;99.90
11894;DHT22;6006;49.696;8.662;2022-08-21T05:10:21;12.60;99.90
11894;DHT22;6006;49.696;8.662;2022-08-21T05:12:49;12.60;99.90
11894;DHT22;6006;49.696;8.662;2022-08-21T05:15:16;12.70;99.90
11894;DHT22;6006;49.696;8.662;2022-08-21T05:17:43;12.70;99.90
11894;DHT22;6006;49.696;8.662;2022-08-21T05:20:11;12.70;99.90
11894;DHT22;6006;49.696;8.662;2022-08-21T05:22:40;12.80;99.90
11894;DHT22;6006;49.696;8.662;2022-08-21T05:25:08;13.00;99.90
11894;DHT22;6006;49.696;8.662;2022-08-21T05:27:35;13.10;99.90
11894;DHT22;6006;49.696;8.662;2022-08-21T05:30:03;13.30;99.90
11894;DHT22;6006;49.696;8.662;2022-08-21T05:32:30;13.40;99.90
11894;DHT22;6006;49.696;8.662;2022-08-21T05:34:57;13.50;99.90
11894;DHT22;6006;49.696;8.662;2022-08-21T05:37:24;13.70;99.90
11894;DHT22;6006;49.696;8.662;2022-08-21T05:39:52;13.80;99.90
11894;DHT22;6006;49.696;8.662;2022-08-21T05:42:19;14.00;99.90
11894;DHT22;6006;49.696;8.662;2022-08-21T05:44:46;14.10;99.90
11894;DHT22;6006;49.696;8.662;2022-08-21T05:47:13;14.30;99.90
11894;DHT22;6006;49.696;8.662;2022-08-21T05:49:40;14.50;99.90
11894;DHT22;6006;49.696;8.662;2022-08-21T05:52:07;14.70;99.90
11894;DHT22;6006;49.696;8.662;2022-08-21T05:54:36;15.00;99.90
11894;DHT22;6006;49.696;8.662;2022-08-21T05:57:04;15.30;99.90
11894;DHT22;6006;49.696;8.662;2022-08-21T05:59:31;15.60;99.90
11894;DHT22;6006;49.696;8.662;2022-08-21T06:01:58;15.90;99.90
11894;DHT22;6006;49.696;8.662;2022-08-21T06:04:25;16.30;99.90
11894;DHT22;6006;49.696;8.662;2022-08-21T06:06:52;16.70;99.90
11894;DHT22;6006;49.696;8.662;2022-08-21T06:09:19;17.30;99.90
11894;DHT22;6006;49.696;8.662;2022-08-21T06:11:46;17.80;63.90
11894;DHT22;6006;49.696;8.662;2022-08-21T06:14:15;18.40;3.40
11894;DHT22;6006;49.696;8.662;2022-08-21T06:16:42;18.90;1.00
11894;DHT22;6006;49.696;8.662;2022-08-21T06:19:09;19.30;1.00
11894;DHT22;6006;49.696;8.662;2022-08-21T06:21:36;19.60;1.00
11894;DHT22;6006;49.696;8.662;2022-08-21T06:24:03;20.00;99.90
11894;DHT22;6006;49.696;8.662;2022-08-21T06:26:31;20.40;1.00
11894;DHT22;6006;49.696;8.662;2022-08-21T06:28:58;20.90;99.90
11894;DHT22;6006;49.696;8.662;2022-08-21T06:31:27;21.40;99.90
11894;DHT22;6006;49.696;8.662;2022-08-21T06:33:54;21.30;99.90
11894;DHT22;6006;49.696;8.662;2022-08-21T06:36:21;21.30;1.00
11894;DHT22;6006;49.696;8.662;2022-08-21T06:38:48;21.60;1.00
11894;DHT22;6006;49.696;8.662;2022-08-21T06:41:15;21.80;99.90
11894;DHT22;6006;49.696;8.662;2022-08-21T06:43:41;22.10;99.90
11894;DHT22;6006;49.696;8.662;2022-08-21T06:46:08;22.80;1.00
11894;DHT22;6006;49.696;8.662;2022-08-21T06:48:36;23.10;1.00
11894;DHT22;6006;49.696;8.662;2022-08-21T06:51:04;22.50;99.20
11894;DHT22;6006;49.696;8.662;2022-08-21T06:53:31;22.40;1.00
11894;DHT22;6006;49.696;8.662;2022-08-21T06:55:58;22.50;1.00
11894;DHT22;6006;49.696;8.662;2022-08-21T06:58:25;22.60;99.90
11894;DHT22;6006;49.696;8.662;2022-08-21T07:00:52;22.70;99.90
11894;DHT22;6006;49.696;8.662;2022-08-21T07:03:22;22.30;1.00
11894;DHT22;6006;49.696;8.662;2022-08-21T07:05:51;22.70;15.20
11894;DHT22;6006;49.696;8.662;2022-08-21T07:08:18;23.20;99.90
11894;DHT22;6006;49.696;8.662;2022-08-21T07:10:46;23.00;1.00
11894;DHT22;6006;49.696;8.662;2022-08-21T07:13:14;23.10;1.00
11894;DHT22;6006;49.696;8.662;2022-08-21T07:15:41;23.20;1.00
11894;DHT22;6006;49.696;8.662;2022-08-21T07:18:08;23.00;1.00
11894;DHT22;6006;49.696;8.662;2022-08-21T07:20:35;22.70;99.90
11894;DHT22;6006;49.696;8.662;2022-08-21T07:23:06;23.20;1.00
11894;DHT22;6006;49.696;8.662;2022-08-21T07:25:33;22.70;1.00
11894;DHT22;6006;49.696;8.662;2022-08-21T07:28:00;23.00;99.90
11894;DHT22;6006;49.696;8.662;2022-08-21T07:30:27;23.00;1.00
11894;DHT22;6006;49.696;8.662;2022-08-21T07:32:55;23.10;1.00
11894;DHT22;6006;49.696;8.662;2022-08-21T07:35:22;23.30;1.00
11894;DHT22;6006;49.696;8.662;2022-08-21T07:37:49;23.20;1.00
11894;DHT22;6006;49.696;8.662;2022-08-21T07:40:18;23.80;1.00
11894;DHT22;6006;49.696;8.662;2022-08-21T07:42:47;24.30;1.00
11894;DHT22;6006;49.696;8.662;2022-08-21T07:45:15;24.70;1.00
11894;DHT22;6006;49.696;8.662;2022-08-21T07:47:42;24.10;1.00
11894;DHT22;6006;49.696;8.662;2022-08-21T07:50:10;24.00;1.00
11894;DHT22;6006;49.696;8.662;2022-08-21T07:52:37;23.90;1.00
11894;DHT22;6006;49.696;8.662;2022-08-21T07:55:05;24.20;1.00
11894;DHT22;6006;49.696;8.662;2022-08-21T07:57:34;24.40;1.00
11894;DHT22;6006;49.696;8.662;2022-08-21T08:00:01;24.50;1.00
11894;DHT22;6006;49.696;8.662;2022-08-21T08:02:29;24.10;1.00
11894;DHT22;6006;49.696;8.662;2022-08-21T08:04:58;24.10;1.00
11894;DHT22;6006;49.696;8.662;2022-08-21T08:07:26;24.20;1.00
11894;DHT22;6006;49.696;8.662;2022-08-21T08:09:53;24.30;1.00
11894;DHT22;6006;49.696;8.662;2022-08-21T08:12:20;24.80;1.00
11894;DHT22;6006;49.696;8.662;2022-08-21T08:14:48;24.80;1.00
11894;DHT22;6006;49.696;8.662;2022-08-21T08:17:15;24.80;1.00
11894;DHT22;6006;49.696;8.662;2022-08-21T08:19:44;24.80;1.00
11894;DHT22;6006;49.696;8.662;2022-08-21T08:22:15;25.10;1.00
11894;DHT22;6006;49.696;8.662;2022-08-21T08:24:42;24.90;1.00
11894;DHT22;6006;49.696;8.662;2022-08-21T08:27:09;25.50;1.00
11894;DHT22;6006;49.696;8.662;2022-08-21T08:29:36;25.60;1.00
11894;DHT22;6006;49.696;8.662;2022-08-21T08:32:05;25.40;1.00
11894;DHT22;6006;49.696;8.662;2022-08-21T08:34:32;25.70;1.00
11894;DHT22;6006;49.696;8.662;2022-08-21T08:36:59;26.00;1.00
11894;DHT22;6006;49.696;8.662;2022-08-21T08:39:26;25.70;1.00
11894;DHT22;6006;49.696;8.662;2022-08-21T08:42:03;26.10;1.00
11894;DHT22;6006;49.696;8.662;2022-08-21T08:44:31;25.70;1.00
11894;DHT22;6006;49.696;8.662;2022-08-21T08:46:59;26.00;1.00
11894;DHT22;6006;49.696;8.662;2022-08-21T08:49:34;26.20;1.00
11894;DHT22;6006;49.696;8.662;2022-08-21T08:52:04;26.80;1.00
11894;DHT22;6006;49.696;8.662;2022-08-21T08:54:37;26.50;1.00
11894;DHT22;6006;49.696;8.662;2022-08-21T08:57:10;26.60;1.00
11894;DHT22;6006;49.696;8.662;2022-08-21T08:59:43;26.60;1.00
11894;DHT22;6006;49.696;8.662;2022-08-21T09:02:13;26.40;1.00
11894;DHT22;6006;49.696;8.662;2022-08-21T09:04:42;26.80;99.90
11894;DHT22;6006;49.696;8.662;2022-08-21T09:07:14;26.80;39.40
11894;DHT22;6006;49.696;8.662;2022-08-21T09:09:51;27.20;99.90
11894;DHT22;6006;49.696;8.662;2022-08-21T09:12:33;27.20;99.90
11894;DHT22;6006;49.696;8.662;2022-08-21T09:15:11;27.80;1.00
11894;DHT22;6006;49.696;8.662;2022-08-21T09:17:56;28.80;1.00
11894;DHT22;6006;49.696;8.662;2022-08-21T09:20:35;28.10;1.00
11894;DHT22;6006;49.696;8.662;2022-08-21T09:23:12;28.10;1.00
11894;DHT22;6006;49.696;8.662;2022-08-21T09:25:50;28.00;1.00
11894;DHT22;6006;49.696;8.662;2022-08-21T09:28:17;27.10;1.00
11894;DHT22;6006;49.696;8.662;2022-08-21T09:30:44;26.90;1.00
11894;DHT22;6006;49.696;8.662;2022-08-21T09:33:12;27.30;1.00
11894;DHT22;6006;49.696;8.662;2022-08-21T09:35:51;28.00;1.00
11894;DHT22;6006;49.696;8.662;2022-08-21T09:38:27;27.70;1.00
11894;DHT22;6006;49.696;8.662;2022-08-21T09:41:00;28.00;1.00
11894;DHT22;6006;49.696;8.662;2022-08-21T09:43:27;28.40;1.00
11894;DHT22;6006;49.696;8.662;2022-08-21T09:46:05;28.50;1.00
11894;DHT22;6006;49.696;8.662;2022-08-21T09:48:40;28.70;1.00
11894;DHT22;6006;49.696;8.662;2022-08-21T09:51:11;27.90;1.00
11894;DHT22;6006;49.696;8.662;2022-08-21T09:53:42;28.90;1.00
11894;DHT22;6006;49.696;8.662;2022-08-21T09:59:25;29.30;1.00
11894;DHT22;6006;49.696;8.662;2022-08-21T10:01:53;29.80;1.00
11894;DHT22;6006;49.696;8.662;2022-08-21T10:04:22;29.70;1.00
11894;DHT22;6006;49.696;8.662;2022-08-21T10:06:51;29.00;1.00
11894;DHT22;6006;49.696;8.662;2022-08-21T10:09:19;30.40;1.00
11894;DHT22;6006;49.696;8.662;2022-08-21T10:11:55;30.30;1.00
11894;DHT22;6006;49.696;8.662;2022-08-21T10:14:38;29.80;1.00
11894;DHT22;6006;49.696;8.662;2022-08-21T10:17:15;29.20;1.00
11894;DHT22;6006;49.696;8.662;2022-08-21T10:19:52;29.70;1.00
11894;DHT22;6006;49.696;8.662;2022-08-21T10:22:34;29.40;1.00
11894;DHT22;6006;49.696;8.662;2022-08-21T10:25:10;29.90;1.00
11894;DHT22;6006;49.696;8.662;2022-08-21T10:27:51;29.10;1.00
11894;DHT22;6006;49.696;8.662;2022-08-21T10:30:30;27.60;1.00
11894;DHT22;6006;49.696;8.662;2022-08-21T10:33:12;28.10;99.90
11894;DHT22;6006;49.696;8.662;2022-08-21T10:35:42;27.90;99.90
11894;DHT22;6006;49.696;8.662;2022-08-21T10:41:28;26.40;99.90
11894;DHT22;6006;49.696;8.662;2022-08-21T10:44:10;26.90;99.90
11894;DHT22;6006;49.696;8.662;2022-08-21T10:46:46;26.40;99.90
11894;DHT22;6006;49.696;8.662;2022-08-21T10:49:22;26.00;99.90
11894;DHT22;6006;49.696;8.662;2022-08-21T10:52:02;25.90;44.60
11894;DHT22;6006;49.696;8.662;2022-08-21T10:54:37;26.60;91.70
11894;DHT22;6006;49.696;8.662;2022-08-21T10:57:12;27.50;99.90
11894;DHT22;6006;49.696;8.662;2022-08-21T10:59:46;28.30;1.00
11894;DHT22;6006;49.696;8.662;2022-08-21T11:02:25;29.50;99.90
11894;DHT22;6006;49.696;8.662;2022-08-21T11:04:57;30.20;99.90
11894;DHT22;6006;49.696;8.662;2022-08-21T11:07:30;30.90;99.90
11894;DHT22;6006;49.696;8.662;2022-08-21T11:10:03;30.30;99.90
11894;DHT22;6006;49.696;8.662;2022-08-21T11:12:39;30.00;99.90
11894;DHT22;6006;49.696;8.662;2022-08-21T11:15:27;31.50;99.90
11894;DHT22;6006;49.696;8.662;2022-08-21T11:18:02;32.00;99.90
11894;DHT22;6006;49.696;8.662;2022-08-21T11:20:34;32.50;99.90
11894;DHT22;6006;49.696;8.662;2022-08-21T11:23:07;31.60;99.90
11894;DHT22;6006;49.696;8.662;2022-08-21T11:25:37;31.10;99.90
11894;DHT22;6006;49.696;8.662;2022-08-21T11:28:13;29.80;99.90
11894;DHT22;6006;49.696;8.662;2022-08-21T11:30:48;28.50;99.90
11894;DHT22;6006;49.696;8.662;2022-08-21T11:33:34;28.70;99.90
11894;DHT22;6006;49.696;8.662;2022-08-21T11:36:11;29.40;99.90
11894;DHT22;6006;49.696;8.662;2022-08-21T11:38:44;29.90;99.90
11894;DHT22;6006;49.696;8.662;2022-08-21T11:41:25;31.10;99.90
11894;DHT22;6006;49.696;8.662;2022-08-21T11:44:02;30.40;99.90
11894;DHT22;6006;49.696;8.662;2022-08-21T11:46:38;29.80;99.90
11894;DHT22;6006;49.696;8.662;2022-08-21T11:52:21;30.20;99.90
11894;DHT22;6006;49.696;8.662;2022-08-21T11:54:54;29.80;99.90
11894;DHT22;6006;49.696;8.662;2022-08-21T11:57:25;29.60;99.90
11894;DHT22;6006;49.696;8.662;2022-08-21T12:00:00;30.00;99.90
11894;DHT22;6006;49.696;8.662;2022-08-21T12:02:34;30.50;99.90
11894;DHT22;6006;49.696;8.662;2022-08-21T12:05:04;30.00;99.90
11894;DHT22;6006;49.696;8.662;2022-08-21T12:07:35;29.40;99.90
11894;DHT22;6006;49.696;8.662;2022-08-21T12:10:05;29.70;99.90
11894;DHT22;6006;49.696;8.662;2022-08-21T12:12:33;30.60;99.90
11894;DHT22;6006;49.696;8.662;2022-08-21T12:15:15;31.90;99.90
11894;DHT22;6006;49.696;8.662;2022-08-21T12:17:53;31.50;99.90
11894;DHT22;6006;49.696;8.662;2022-08-21T12:20:39;31.50;99.90
11894;DHT22;6006;49.696;8.662;2022-08-21T12:23:17;31.10;99.90
11894;DHT22;6006;49.696;8.662;2022-08-21T12:25:58;30.80;99.90
11894;DHT22;6006;49.696;8.662;2022-08-21T12:28:26;30.90;99.90
11894;DHT22;6006;49.696;8.662;2022-08-21T12:30:55;29.80;99.90
11894;DHT22;6006;49.696;8.662;2022-08-21T12:33:24;28.50;99.90
11894;DHT22;6006;49.696;8.662;2022-08-21T12:36:02;28.30;99.90
11894;DHT22;6006;49.696;8.662;2022-08-21T12:38:33;29.30;99.90
11894;DHT22;6006;49.696;8.662;2022-08-21T12:41:04;29.70;99.90
11894;DHT22;6006;49.696;8.662;2022-08-21T12:43:34;30.30;99.90
11894;DHT22;6006;49.696;8.662;2022-08-21T12:46:04;30.70;99.90
11894;DHT22;6006;49.696;8.662;2022-08-21T12:48:35;29.60;99.90
11894;DHT22;6006;49.696;8.662;2022-08-21T12:51:09;29.50;99.90
11894;DHT22;6006;49.696;8.662;2022-08-21T12:53:42;29.90;99.90
11894;DHT22;6006;49.696;8.662;2022-08-21T12:56:13;30.30;99.90
11894;DHT22;6006;49.696;8.662;2022-08-21T12:58:43;31.30;99.90
11894;DHT22;6006;49.696;8.662;2022-08-21T13:01:19;31.70;99.90
11894;DHT22;6006;49.696;8.662;2022-08-21T13:03:48;32.20;99.90
11894;DHT22;6006;49.696;8.662;2022-08-21T13:06:17;30.50;99.90
11894;DHT22;6006;49.696;8.662;2022-08-21T13:08:47;31.30;99.90
11894;DHT22;6006;49.696;8.662;2022-08-21T13:11:16;31.50;99.90
11894;DHT22;6006;49.696;8.662;2022-08-21T13:13:48;31.10;99.90
11894;DHT22;6006;49.696;8.662;2022-08-21T13:16:22;30.40;99.90
11894;DHT22;6006;49.696;8.662;2022-08-21T13:18:55;30.20;99.90
11894;DHT22;6006;49.696;8.662;2022-08-21T13:21:28;30.70;99.90
11894;DHT22;6006;49.696;8.662;2022-08-21T13:24:08;31.00;99.90
11894;DHT22;6006;49.696;8.662;2022-08-21T13:26:36;31.80;99.90
11894;DHT22;6006;49.696;8.662;2022-08-21T13:29:07;32.30;99.90
11894;DHT22;6006;49.696;8.662;2022-08-21T13:31:38;32.40;99.90
11894;DHT22;6006;49.696;8.662;2022-08-21T13:34:09;32.20;99.90
11894;DHT22;6006;49.696;8.662;2022-08-21T13:36:39;32.30;99.90
11894;DHT22;6006;49.696;8.662;2022-08-21T13:39:08;32.10;99.90
11894;DHT22;6006;49.696;8.662;2022-08-21T13:41:38;31.60;99.90
11894;DHT22;6006;49.696;8.662;2022-08-21T13:44:14;30.80;99.90
11894;DHT22;6006;49.696;8.662;2022-08-21T13:46:43;31.50;99.90
11894;DHT22;6006;49.696;8.662;2022-08-21T13:49:13;31.70;99.90
11894;DHT22;6006;49.696;8.662;2022-08-21T13:51:41;31.60;99.90
11894;DHT22;6006;49.696;8.662;2022-08-21T13:54:19;31.70;99.90
11894;DHT22;6006;49.696;8.662;2022-08-21T13:56:47;32.10;99.90
11894;DHT22;6006;49.696;8.662;2022-08-21T13:59:25;32.90;99.90
11894;DHT22;6006;49.696;8.662;2022-08-21T14:01:55;33.10;99.90
11894;DHT22;6006;49.696;8.662;2022-08-21T14:04:30;32.90;99.90
11894;DHT22;6006;49.696;8.662;2022-08-21T14:06:58;32.00;99.90
11894;DHT22;6006;49.696;8.662;2022-08-21T14:09:29;31.10;99.90
11894;DHT22;6006;49.696;8.662;2022-08-21T14:11:58;30.90;99.90
11894;DHT22;6006;49.696;8.662;2022-08-21T14:14:30;31.70;99.90
11894;DHT22;6006;49.696;8.662;2022-08-21T14:17:00;31.60;99.90
11894;DHT22;6006;49.696;8.662;2022-08-21T14:19:37;32.10;99.90
11894;DHT22;6006;49.696;8.662;2022-08-21T14:22:29;31.90;99.90
11894;DHT22;6006;49.696;8.662;2022-08-21T14:25:02;31.50;99.90
11894;DHT22;6006;49.696;8.662;2022-08-21T14:27:32;30.90;99.90
11894;DHT22;6006;49.696;8.662;2022-08-21T14:30:01;31.60;99.90
11894;DHT22;6006;49.696;8.662;2022-08-21T14:32:38;31.30;99.90
11894;DHT22;6006;49.696;8.662;2022-08-21T14:35:06;31.10;99.90
11894;DHT22;6006;49.696;8.662;2022-08-21T14:37:34;31.60;99.90
11894;DHT22;6006;49.696;8.662;2022-08-21T14:40:02;32.70;99.90
11894;DHT22;6006;49.696;8.662;2022-08-21T14:42:29;33.20;99.90
11894;DHT22;6006;49.696;8.662;2022-08-21T14:45:02;34.00;99.90
11894;DHT22;6006;49.696;8.662;2022-08-21T14:47:33;34.70;99.90
11894;DHT22;6006;49.696;8.662;2022-08-21T14:49:59;33.90;99.90
11894;DHT22;6006;49.696;8.662;2022-08-21T14:52:26;34.10;99.90
11894;DHT22;6006;49.696;8.662;2022-08-21T14:54:53;33.90;99.90
11894;DHT22;6006;49.696;8.662;2022-08-21T14:57:20;33.60;99.90
11894;DHT22;6006;49.696;8.662;2022-08-21T14:59:47;32.60;99.90
11894;DHT22;6006;49.696;8.662;2022-08-21T15:02:14;32.20;99.90
11894;DHT22;6006;49.696;8.662;2022-08-21T15:04:43;31.40;99.90
11894;DHT22;6006;49.696;8.662;2022-08-21T15:07:09;30.60;99.90
11894;DHT22;6006;49.696;8.662;2022-08-21T15:09:36;30.70;99.90
11894;DHT22;6006;49.696;8.662;2022-08-21T15:12:04;30.70;99.90
11894;DHT22;6006;49.696;8.662;2022-08-21T15:14:35;30.80;99.90
11894;DHT22;6006;49.696;8.662;2022-08-21T15:17:03;30.70;99.90
11894;DHT22;6006;49.696;8.662;2022-08-21T15:19:31;30.70;99.90
11894;DHT22;6006;49.696;8.662;2022-08-21T15:22:00;30.80;99.90
11894;DHT22;6006;49.696;8.662;2022-08-21T15:24:27;30.70;99.90
11894;DHT22;6006;49.696;8.662;2022-08-21T15:26:55;30.30;99.90
11894;DHT22;6006;49.696;8.662;2022-08-21T15:29:22;31.10;99.90
11894;DHT22;6006;49.696;8.662;2022-08-21T15:31:52;30.90;99.90
11894;DHT22;6006;49.696;8.662;2022-08-21T15:34:20;31.70;99.90
11894;DHT22;6006;49.696;8.662;2022-08-21T15:36:47;31.30;99.90
11894;DHT22;6006;49.696;8.662;2022-08-21T15:39:15;31.30;99.90
11894;DHT22;6006;49.696;8.662;2022-08-21T15:41:43;30.50;99.90
11894;DHT22;6006;49.696;8.662;2022-08-21T15:44:11;30.10;99.90
11894;DHT22;6006;49.696;8.662;2022-08-21T15:46:39;31.00;99.90
11894;DHT22;6006;49.696;8.662;2022-08-21T15:49:06;31.20;99.90
11894;DHT22;6006;49.696;8.662;2022-08-21T15:51:34;31.50;99.90
11894;DHT22;6006;49.696;8.662;2022-08-21T15:54:01;31.30;99.90
11894;DHT22;6006;49.696;8.662;2022-08-21T15:56:34;31.20;99.90
11894;DHT22;6006;49.696;8.662;2022-08-21T15:59:04;31.60;99.90
11894;DHT22;6006;49.696;8.662;2022-08-21T16:01:32;31.80;99.90
11894;DHT22;6006;49.696;8.662;2022-08-21T16:04:00;31.80;99.90
11894;DHT22;6006;49.696;8.662;2022-08-21T16:06:28;30.90;99.90
11894;DHT22;6006;49.696;8.662;2022-08-21T16:08:55;31.10;99.90
11894;DHT22;6006;49.696;8.662;2022-08-21T16:11:22;31.20;99.90
11894;DHT22;6006;49.696;8.662;2022-08-21T16:13:51;30.80;99.90
11894;DHT22;6006;49.696;8.662;2022-08-21T16:16:19;30.70;99.90